Huvudsida
METAR-TAF:

METAR-TAF

Flygplatser :

Björneborg, Finland

Björneborgs flygplats

latitud: 61-28N, longitud: 021-48E, höjd: 13 m

Aktuellt väderrapport

Denna rapport gjordes för 30 minuter sedan, klockan 02:50 UTC
Vind 4 kt från ost
Temperatur -8°C
Fuktighet 85%
Tryck 1000 hPa
Sikt 10 km eller mer
lätt snö

METAR: EFPO 190250Z AUTO 10004KT 9999 -SN SCT058/// SCT070/// M08/M10 Q1000

Tid: 05:20 (03:20 UTC)

Väderprognos

Denna rapport gjordes för 43 minuter sedan, klockan 02:37 UTC
Prognos gäller från 19 kl. 03 UTC till 19 kl. 12 UTC
Vind 4 kt från ost
Sikt: 8000 m
Få moln på en höjd av 1200 ft
Brutna moln på en höjd av 4500 ft
lätt snö
Sannolikhet 40% :
Temporärt
från 19 kl. 03 UTC till 19 kl. 09 UTC
Sikt: 5000 m
Brutna moln på en höjd av 1200 ft

TAF: EFPO 190237Z 1903/1912 10004KT 8000 -SN FEW012 BKN045 PROB40 TEMPO 1903/1909 5000 BKN012

Aktuella väderrapporter och prognoser från 4000 flygplatser (METAR- och TAF-rapporter).

De tillgängliga stationerna syns som gula och röda prickar på kartan.

För musen över prickarna för att se namnen på stationerna.

Klicka sedan för att få väderrapporter och prognoser.

För att ändra kartan: Klicka på de gröna knapparna med ett svart kors på för att zooma in; den gröna knappen med ett streck på för att zooma ut; eller på de gröna pilarna för angränsande kartor.


METAR-TAF: